Time;durP1;ratioP1;P1;durP2;ratioP2;P2;SDS_P1;SDS_P2;PMS_P1;PMS_P2;Temp;Humidity;BMP_temperature;BMP_pressure;BME280_temperature;BME280_humidity;BME280_pressure;Samples;Min_cycle;Max_cycle;Signal;HPM_P1;HPM_P2
2022/06/02 00:01:00;;;;;;;10.75;6.95;;;;;;;;;;5103359;28;20043;-73
2022/06/02 00:03:35;;;;;;;10.63;6.18;;;;;;;;;;5126861;27;20399;-73
2022/06/02 00:06:11;;;;;;;10.88;6.93;;;;;;;;;;5099302;27;20078;-74
2022/06/02 00:08:43;;;;;;;10.75;6.95;;;;;;;;;;5120313;27;20062;-74
2022/06/02 00:11:21;;;;;;;10.55;6.57;;;;;;;;;;5125152;27;20571;-74
2022/06/02 00:14:06;;;;;;;10.15;6.72;;;;;;;;;;5097693;27;20043;-74
2022/06/02 00:16:42;;;;;;;10.15;7.00;;;;;;;;;;5120004;27;20043;-74
2022/06/02 00:19:27;;;;;;;10.02;6.20;;;;;;;;;;5108816;27;20130;-74
2022/06/02 00:21:57;;;;;;;10.30;6.75;;;;;;;;;;5101187;27;20039;-73
2022/06/02 00:24:28;;;;;;;11.18;6.53;;;;;;;;;;5130891;27;20149;-74
2022/06/02 00:27:12;;;;;;;9.50;6.22;;;;;;;;;;5115224;27;20118;-74
2022/06/02 00:29:57;;;;;;;12.07;8.18;;;;;;;;;;5082576;27;20039;-74
2022/06/02 00:32:35;;;;;;;10.85;7.13;;;;;;;;;;5118629;27;20042;-73
2022/06/02 00:35:18;;;;;;;12.02;7.38;;;;;;;;;;5126727;27;20114;-74
2022/06/02 00:37:53;;;;;;;10.20;7.47;;;;;;;;;;5116385;27;20123;-74
2022/06/02 00:40:21;;;;;;;12.07;7.15;;;;;;;;;;5118185;27;20406;-74
2022/06/02 00:42:53;;;;;;;12.32;8.27;;;;;;;;;;5126274;27;20070;-73
2022/06/02 00:45:21;;;;;;;11.13;8.30;;;;;;;;;;5098063;27;20043;-73
2022/06/02 00:47:50;;;;;;;10.80;8.07;;;;;;;;;;5114482;27;20044;-73
2022/06/02 00:50:34;;;;;;;11.57;7.47;;;;;;;;;;5122582;27;20049;-74
2022/06/02 00:53:28;;;;;;;12.93;8.18;;;;;;;;;;5113117;27;20035;-73
2022/06/02 00:58:59;;;;;;;13.70;7.77;;;;;;;;;;5125847;27;20334;-74
2022/06/02 01:01:27;;;;;;;11.70;7.80;;;;;;;;;;5116756;27;20095;-74
2022/06/02 01:03:54;;;;;;;12.10;7.85;;;;;;;;;;5100517;28;20047;-76
2022/06/02 01:06:23;;;;;;;10.63;7.18;;;;;;;;;;5125317;27;20550;-76
2022/06/02 01:09:02;;;;;;;11.02;7.70;;;;;;;;;;5112522;27;20051;-76
2022/06/02 01:11:38;;;;;;;11.85;8.48;;;;;;;;;;5119740;27;20063;-76
2022/06/02 01:14:13;;;;;;;12.43;7.68;;;;;;;;;;5123623;27;20082;-76
2022/06/02 01:16:55;;;;;;;12.60;8.10;;;;;;;;;;5112489;27;20054;-76
2022/06/02 01:19:28;;;;;;;11.40;8.48;;;;;;;;;;5119875;27;20143;-76
2022/06/02 01:22:09;;;;;;;12.00;8.48;;;;;;;;;;5123415;27;20096;-76
2022/06/02 01:24:54;;;;;;;12.07;8.70;;;;;;;;;;5096501;27;20046;-76
2022/06/02 01:27:20;;;;;;;;;;;;;;;;;;5118927;27;20039;-76
2022/06/02 01:29:47;;;;;;;11.82;8.05;;;;;;;;;;5122941;27;19915;-76
2022/06/02 01:32:20;;;;;;;11.93;8.15;;;;;;;;;;5110934;27;20131;-76
2022/06/02 01:34:55;;;;;;;11.55;8.02;;;;;;;;;;5115667;27;20114;-76
2022/06/02 01:37:22;;;;;;;11.43;7.55;;;;;;;;;;5116996;27;20474;-76
2022/06/02 01:39:48;;;;;;;12.70;7.38;;;;;;;;;;5124810;27;20067;-76
2022/06/02 01:42:33;;;;;;;11.65;8.25;;;;;;;;;;5112256;27;20035;-76
2022/06/02 01:45:08;;;;;;;12.68;8.73;;;;;;;;;;5118601;27;20043;-76
2022/06/02 01:47:34;;;;;;;12.00;7.38;;;;;;;;;;5117783;27;20039;-76
2022/06/02 01:50:19;;;;;;;13.55;9.02;;;;;;;;;;5097500;27;20032;-76
2022/06/02 01:52:45;;;;;;;11.90;8.52;;;;;;;;;;5102410;28;20088;-76
2022/06/02 01:55:35;;;;;;;13.52;8.85;;;;;;;;;;5121951;27;20062;-76
2022/06/02 01:58:01;;;;;;;12.48;8.77;;;;;;;;;;5054441;28;20043;-76
2022/06/02 02:00:31;;;;;;;14.32;9.38;;;;;;;;;;5115925;27;20043;-76
2022/06/02 02:03:00;;;;;;;13.10;9.40;;;;;;;;;;5123765;27;20039;-76
2022/06/02 02:05:35;;;;;;;12.77;9.70;;;;;;;;;;5111726;27;20112;-76
2022/06/02 02:08:11;;;;;;;13.73;9.38;;;;;;;;;;5122058;27;20051;-76
2022/06/02 02:10:37;;;;;;;15.27;10.20;;;;;;;;;;5118551;27;20383;-76
2022/06/02 02:13:29;;;;;;;12.95;10.30;;;;;;;;;;5114237;27;20070;-76
2022/06/02 02:15:55;;;;;;;13.75;9.80;;;;;;;;;;5099324;27;20039;-76
2022/06/02 02:18:24;;;;;;;16.60;10.20;;;;;;;;;;5118902;27;20408;-76
2022/06/02 02:20:55;;;;;;;12.57;9.77;;;;;;;;;;5121984;27;20035;-75
2022/06/02 02:23:28;;;;;;;14.82;9.70;;;;;;;;;;5101671;27;20059;-76
2022/06/02 02:26:07;;;;;;;15.55;9.70;;;;;;;;;;5121357;27;20047;-76
2022/06/02 02:28:43;;;;;;;13.88;9.82;;;;;;;;;;5119829;27;20054;-76
2022/06/02 02:31:18;;;;;;;14.05;9.48;;;;;;;;;;5111219;28;20043;-77
2022/06/02 02:33:55;;;;;;;14.60;9.63;;;;;;;;;;5121316;27;20080;-76
2022/06/02 02:36:30;;;;;;;12.60;9.27;;;;;;;;;;5120043;28;20088;-76
2022/06/02 02:38:56;;;;;;;13.68;9.07;;;;;;;;;;5111593;28;20626;-76
2022/06/02 02:41:45;;;;;;;14.25;9.88;;;;;;;;;;5123335;28;20047;-76
2022/06/02 02:44:16;;;;;;;14.77;9.82;;;;;;;;;;5102795;28;20042;-76
2022/06/02 02:47:03;;;;;;;12.13;9.45;;;;;;;;;;5094642;28;20043;-76
2022/06/02 02:49:32;;;;;;;14.32;10.60;;;;;;;;;;5083741;28;20052;-76
2022/06/02 02:52:05;;;;;;;16.27;9.95;;;;;;;;;;5116685;28;20093;-75
2022/06/02 02:54:32;;;;;;;14.45;10.45;;;;;;;;;;5123728;28;20071;-76
2022/06/02 02:57:08;;;;;;;14.25;10.80;;;;;;;;;;5111269;28;20039;-75
2022/06/02 02:59:45;;;;;;;14.75;10.15;;;;;;;;;;5119332;28;20423;-76
2022/06/02 03:02:31;;;;;;;15.13;10.70;;;;;;;;;;5121548;28;20058;-76
2022/06/02 03:05:00;;;;;;;14.48;10.55;;;;;;;;;;5095736;28;20081;-75
2022/06/02 03:07:29;;;;;;;13.90;10.73;;;;;;;;;;5118872;28;20522;-75
2022/06/02 03:10:11;;;;;;;13.95;10.73;;;;;;;;;;5120578;28;20111;-75
2022/06/02 03:12:49;;;;;;;16.52;11.77;;;;;;;;;;5111142;28;20089;-75
2022/06/02 03:15:25;;;;;;;15.80;11.25;;;;;;;;;;5119320;28;20060;-76
2022/06/02 03:18:00;;;;;;;14.48;10.95;;;;;;;;;;5104479;28;20627;-76
2022/06/02 03:20:39;;;;;;;14.57;11.07;;;;;;;;;;5127354;27;20394;-75
2022/06/02 03:23:23;;;;;;;14.98;10.85;;;;;;;;;;5119024;27;20039;-76
2022/06/02 03:25:59;;;;;;;16.73;12.52;;;;;;;;;;5099994;28;20126;-76
2022/06/02 03:28:28;;;;;;;16.90;11.88;;;;;;;;;;5127783;27;20043;-76
2022/06/02 03:31:13;;;;;;;16.55;11.20;;;;;;;;;;5118474;27;20202;-76
2022/06/02 03:33:42;;;;;;;15.57;11.68;;;;;;;;;;5117381;27;20071;-75
2022/06/02 03:36:28;;;;;;;14.85;11.27;;;;;;;;;;5127467;27;20072;-76
2022/06/02 03:39:02;;;;;;;16.00;12.32;;;;;;;;;;5119284;27;20038;-75
2022/06/02 03:41:36;;;;;;;16.92;12.80;;;;;;;;;;5117617;27;20143;-75
2022/06/02 03:44:12;;;;;;;15.30;11.48;;;;;;;;;;5110185;27;20039;-75
2022/06/02 03:46:54;;;;;;;18.05;12.40;;;;;;;;;;5118330;27;20331;-75
2022/06/02 03:49:29;;;;;;;18.02;13.65;;;;;;;;;;5117163;27;20285;-75
2022/06/02 03:51:59;;;;;;;17.90;13.45;;;;;;;;;;5110453;27;20378;-75
2022/06/02 03:54:44;;;;;;;17.25;13.85;;;;;;;;;;5117688;27;20422;-75
2022/06/02 03:57:10;;;;;;;;;;;;;;;;;;5117612;27;20040;-75
2022/06/02 03:59:54;;;;;;;17.17;12.48;;;;;;;;;;5110106;27;19960;-75
2022/06/02 04:02:33;;;;;;;17.92;14.07;;;;;;;;;;5118066;27;20442;-75
2022/06/02 04:05:02;;;;;;;16.80;12.50;;;;;;;;;;5117864;27;20039;-75
2022/06/02 04:07:47;;;;;;;18.92;14.20;;;;;;;;;;5127551;27;20482;-75
2022/06/02 04:10:13;;;;;;;;;;;;;;;;;;5118418;27;20415;-75
2022/06/02 04:15:30;;;;;;;16.55;12.68;;;;;;;;;;5126823;27;20290;-75
2022/06/02 04:17:56;;;;;;;18.10;13.35;;;;;;;;;;5099354;27;20036;-76
2022/06/02 04:20:34;;;;;;;19.88;13.75;;;;;;;;;;5120343;27;20043;-75
2022/06/02 04:23:18;;;;;;;17.15;13.48;;;;;;;;;;5125985;27;20490;-76
2022/06/02 04:25:54;;;;;;;17.57;13.17;;;;;;;;;;5078634;28;20088;-75
2022/06/02 04:28:29;;;;;;;18.98;13.57;;;;;;;;;;5092354;28;20781;-75
2022/06/02 04:31:07;;;;;;;20.27;14.18;;;;;;;;;;5092450;28;20104;-75
2022/06/02 04:33:35;;;;;;;18.90;14.32;;;;;;;;;;5099738;27;20075;-76
2022/06/02 04:36:24;;;;;;;17.73;13.63;;;;;;;;;;5128559;27;20031;-75
2022/06/02 04:38:53;;;;;;;17.48;13.40;;;;;;;;;;5113461;27;20078;-76
2022/06/02 04:41:40;;;;;;;18.33;13.43;;;;;;;;;;5125617;27;20536;-75
2022/06/02 04:44:16;;;;;;;18.60;14.98;;;;;;;;;;5121175;27;20046;-76
2022/06/02 04:46:56;;;;;;;17.38;12.75;;;;;;;;;;5113336;27;20118;-75
2022/06/02 04:49:22;;;;;;;18.13;13.65;;;;;;;;;;5123922;27;20035;-76
2022/06/02 04:52:07;;;;;;;19.30;13.65;;;;;;;;;;5116431;27;20050;-75
2022/06/02 04:54:34;;;;;;;;;;;;;;;;;;5113265;27;20479;-75
2022/06/02 04:57:03;;;;;;;18.30;13.38;;;;;;;;;;5125752;27;20370;-75
2022/06/02 04:59:32;;;;;;;18.85;13.40;;;;;;;;;;5100742;27;20513;-76
2022/06/02 05:01:58;;;;;;;18.85;13.40;;;;;;;;;;5116849;27;20040;-75
2022/06/02 05:04:24;;;;;;;18.55;13.88;;;;;;;;;;5095750;27;20044;-76
2022/06/02 05:07:01;;;;;;;18.48;13.10;;;;;;;;;;5090655;28;20476;-75
2022/06/02 05:09:36;;;;;;;20.75;14.43;;;;;;;;;;5090429;28;20092;-75
2022/06/02 05:12:02;;;;;;;;;;;;;;;;;;5087447;28;20032;-75
2022/06/02 05:14:30;;;;;;;17.25;12.90;;;;;;;;;;5128061;27;20275;-75
2022/06/02 05:17:29;;;;;;;18.05;13.52;;;;;;;;;;5131536;27;20031;-75
2022/06/02 05:19:55;;;;;;;18.98;13.85;;;;;;;;;;5076280;27;20721;-76
2022/06/02 05:22:37;;;;;;;21.63;14.13;;;;;;;;;;5129189;27;20490;-75
2022/06/02 05:25:22;;;;;;;17.02;13.23;;;;;;;;;;5110523;28;20050;-76
2022/06/02 05:28:00;;;;;;;17.38;13.43;;;;;;;;;;5125672;27;20039;-75
2022/06/02 05:30:34;;;;;;;17.35;13.32;;;;;;;;;;5098140;27;20126;-75
2022/06/02 05:33:03;;;;;;;18.77;13.40;;;;;;;;;;5114040;27;20077;-76
2022/06/02 05:35:38;;;;;;;20.23;14.02;;;;;;;;;;5131239;27;20134;-75
2022/06/02 05:38:11;;;;;;;19.02;14.00;;;;;;;;;;5130991;27;20039;-76
2022/06/02 05:40:38;;;;;;;18.10;13.85;;;;;;;;;;5124130;27;20039;-75
2022/06/02 05:43:13;;;;;;;19.58;15.18;;;;;;;;;;5121559;27;20047;-76
2022/06/02 05:45:58;;;;;;;17.10;12.90;;;;;;;;;;5114644;27;20059;-76
2022/06/02 05:48:43;;;;;;;18.80;13.10;;;;;;;;;;5102874;27;20042;-76
2022/06/02 05:51:12;;;;;;;17.67;13.13;;;;;;;;;;5100646;28;20043;-75
2022/06/02 05:53:41;;;;;;;16.63;11.65;;;;;;;;;;5110268;28;20099;-76
2022/06/02 05:56:16;;;;;;;16.85;11.85;;;;;;;;;;5101262;28;20491;-76
2022/06/02 05:58:42;;;;;;;16.30;11.93;;;;;;;;;;5117539;27;20217;-76
2022/06/02 06:01:14;;;;;;;16.05;12.00;;;;;;;;;;5110458;28;20134;-76
2022/06/02 06:03:56;;;;;;;16.30;12.43;;;;;;;;;;5110175;28;20035;-76
2022/06/02 06:06:25;;;;;;;15.27;10.90;;;;;;;;;;5101748;27;20039;-76
2022/06/02 06:09:01;;;;;;;16.02;11.20;;;;;;;;;;5130181;27;20055;-76
2022/06/02 06:11:46;;;;;;;14.52;10.07;;;;;;;;;;5111539;27;20390;-76
2022/06/02 06:14:19;;;;;;;11.80;8.75;;;;;;;;;;5118625;27;20589;-77
2022/06/02 06:16:48;;;;;;;13.80;8.30;;;;;;;;;;5116990;27;20100;-76
2022/06/02 06:19:17;;;;;;;12.40;7.88;;;;;;;;;;5126403;27;20031;-76
2022/06/02 06:21:50;;;;;;;12.75;7.20;;;;;;;;;;5110021;28;20031;-75
2022/06/02 06:24:24;;;;;;;10.60;6.97;;;;;;;;;;5110165;28;20483;-76
2022/06/02 06:26:57;;;;;;;18.75;7.25;;;;;;;;;;5092991;28;20042;-77
2022/06/02 06:29:43;;;;;;;10.57;5.78;;;;;;;;;;5130161;27;20049;-76
2022/06/02 06:32:12;;;;;;;8.60;5.35;;;;;;;;;;5130338;27;20114;-76
2022/06/02 06:35:03;;;;;;;10.82;5.95;;;;;;;;;;5115441;28;20447;-76
2022/06/02 06:37:35;;;;;;;11.43;5.68;;;;;;;;;;5098760;28;20042;-76
2022/06/02 06:40:04;;;;;;;6.68;4.40;;;;;;;;;;5102626;28;20039;-76
2022/06/02 06:42:39;;;;;;;8.75;5.22;;;;;;;;;;5105902;28;20071;-77
2022/06/02 06:45:09;;;;;;;9.65;5.70;;;;;;;;;;5109987;28;20082;-77
2022/06/02 06:47:45;;;;;;;9.15;4.78;;;;;;;;;;5118519;28;20453;-77
2022/06/02 06:50:23;;;;;;;8.23;4.80;;;;;;;;;;5099793;28;20372;-76
2022/06/02 06:53:08;;;;;;;11.43;5.20;;;;;;;;;;5111056;28;20039;-77
2022/06/02 06:55:53;;;;;;;8.63;5.00;;;;;;;;;;5127665;27;20471;-77
2022/06/02 06:58:23;;;;;;;9.05;5.57;;;;;;;;;;5132485;27;20085;-81
2022/06/02 07:00:54;;;;;;;8.50;4.95;;;;;;;;;;5098185;27;20044;-76
2022/06/02 07:03:58;;;;;;;10.82;5.10;;;;;;;;;;5108146;28;20036;-77
2022/06/02 07:06:26;;;;;;;7.87;3.83;;;;;;;;;;5026401;28;20652;-81
2022/06/02 07:09:16;;;;;;;7.63;3.25;;;;;;;;;;5030567;28;20461;-74
2022/06/02 07:14:44;;;;;;;6.65;3.20;;;;;;;;;;5097059;27;20047;-72
2022/06/02 07:17:29;;;;;;;5.50;2.97;;;;;;;;;;5119856;27;20120;-76
2022/06/02 07:20:02;;;;;;;7.57;4.03;;;;;;;;;;5116304;27;20031;-74
2022/06/02 07:22:45;;;;;;;9.25;4.30;;;;;;;;;;5108834;27;20103;-74
2022/06/02 07:25:18;;;;;;;7.00;3.78;;;;;;;;;;5121972;27;20043;-75
2022/06/02 07:28:06;;;;;;;6.03;3.70;;;;;;;;;;5114536;27;20432;-73
2022/06/02 07:30:47;;;;;;;7.53;3.70;;;;;;;;;;5109392;27;20471;-74
2022/06/02 07:33:20;;;;;;;6.75;3.75;;;;;;;;;;5112527;27;20028;-81
2022/06/02 07:36:04;;;;;;;7.25;3.88;;;;;;;;;;5110353;28;20040;-74
2022/06/02 07:38:43;;;;;;;8.32;3.60;;;;;;;;;;5110169;27;20032;-77
2022/06/02 07:41:15;;;;;;;7.88;3.22;;;;;;;;;;5110606;27;20398;-76
2022/06/02 07:44:00;;;;;;;7.22;3.40;;;;;;;;;;5110161;28;20293;-77
2022/06/02 07:46:37;;;;;;;6.63;3.22;;;;;;;;;;5093289;28;20061;-76
2022/06/02 07:49:24;;;;;;;5.43;3.17;;;;;;;;;;5110066;28;20054;-80
2022/06/02 07:52:08;;;;;;;5.28;2.92;;;;;;;;;;5093573;27;20043;-76
2022/06/02 07:54:41;;;;;;;5.55;2.83;;;;;;;;;;5100708;28;20491;-76
2022/06/02 07:57:32;;;;;;;5.90;2.75;;;;;;;;;;5116836;27;20039;-76
2022/06/02 08:00:17;;;;;;;4.88;2.58;;;;;;;;;;5103931;28;20051;-76
2022/06/02 08:02:53;;;;;;;4.47;2.35;;;;;;;;;;5095508;28;20111;-75
2022/06/02 08:05:19;;;;;;;5.65;2.50;;;;;;;;;;5125638;27;20043;-77
2022/06/02 08:07:59;;;;;;;6.75;2.78;;;;;;;;;;5097668;27;20438;-77
2022/06/02 08:10:31;;;;;;;5.78;3.25;;;;;;;;;;5121099;27;20149;-76
2022/06/02 08:13:26;;;;;;;6.47;3.38;;;;;;;;;;5125394;27;20057;-77
2022/06/02 08:16:04;;;;;;;5.70;2.70;;;;;;;;;;5106851;28;20097;-78
2022/06/02 08:18:48;;;;;;;6.70;3.20;;;;;;;;;;5121891;27;20046;-78
2022/06/02 08:21:21;;;;;;;6.18;3.10;;;;;;;;;;5110970;27;20098;-79
2022/06/02 08:23:53;;;;;;;5.57;2.60;;;;;;;;;;5106624;28;20039;-86
2022/06/02 08:26:39;;;;;;;4.22;2.60;;;;;;;;;;5089120;28;20040;-78
2022/06/02 08:29:29;;;;;;;7.07;3.10;;;;;;;;;;5088411;28;20129;-79
2022/06/02 08:32:07;;;;;;;7.20;2.63;;;;;;;;;;5099368;28;20052;-78
2022/06/02 08:34:53;;;;;;;5.63;2.53;;;;;;;;;;5108453;27;20087;-77
2022/06/02 08:37:22;;;;;;;10.35;2.92;;;;;;;;;;5111806;28;20619;-77
2022/06/02 08:39:57;;;;;;;5.78;2.90;;;;;;;;;;5111560;28;20122;-77
2022/06/02 08:42:23;;;;;;;6.15;3.03;;;;;;;;;;5094510;28;20035;-77
2022/06/02 08:44:52;;;;;;;7.40;3.40;;;;;;;;;;5112543;27;20096;-77
2022/06/02 08:47:19;;;;;;;7.50;2.78;;;;;;;;;;5111107;28;20039;-76
2022/06/02 08:49:48;;;;;;;6.85;3.33;;;;;;;;;;5094526;28;20036;-79
2022/06/02 08:52:20;;;;;;;5.97;3.20;;;;;;;;;;5111004;28;20028;-79
2022/06/02 08:55:09;;;;;;;6.50;3.45;;;;;;;;;;5111590;28;20400;-76
2022/06/02 08:57:41;;;;;;;4.95;2.88;;;;;;;;;;5118737;27;20043;-78
2022/06/02 09:00:19;;;;;;;6.10;3.08;;;;;;;;;;5132690;27;20045;-80
2022/06/02 09:02:54;;;;;;;5.05;3.20;;;;;;;;;;5118478;27;20042;-80
2022/06/02 09:05:35;;;;;;;5.70;2.67;;;;;;;;;;5111845;28;20077;-80
2022/06/02 09:08:08;;;;;;;3.60;2.40;;;;;;;;;;5094749;28;20086;-80
2022/06/02 09:10:34;;;;;;;6.25;2.78;;;;;;;;;;5093746;28;20039;-77
2022/06/02 09:13:24;;;;;;;5.63;2.58;;;;;;;;;;5108487;28;20039;-77
2022/06/02 09:15:56;;;;;;;4.13;2.50;;;;;;;;;;5056543;28;20511;-75
2022/06/02 09:18:24;;;;;;;6.90;3.00;;;;;;;;;;5104551;28;20039;-77
2022/06/02 09:20:50;;;;;;;4.78;2.85;;;;;;;;;;5096482;27;20047;-74
2022/06/02 09:23:17;;;;;;;5.45;2.80;;;;;;;;;;5109547;28;20437;-78
2022/06/02 09:25:43;;;;;;;4.75;2.45;;;;;;;;;;5108001;28;20047;-75
2022/06/02 09:28:15;;;;;;;5.00;2.30;;;;;;;;;;5111936;27;20043;-75
2022/06/02 09:30:50;;;;;;;8.43;2.63;;;;;;;;;;5107492;27;20442;-75
2022/06/02 09:33:34;;;;;;;5.45;2.10;;;;;;;;;;5089686;28;20114;-77
2022/06/02 09:36:09;;;;;;;5.13;2.45;;;;;;;;;;5113217;27;20513;-76
2022/06/02 09:38:55;;;;;;;4.93;2.40;;;;;;;;;;5106451;27;20495;-81
2022/06/02 09:41:48;;;;;;;4.45;2.13;;;;;;;;;;5125439;27;20485;-74
2022/06/02 09:44:17;;;;;;;5.05;2.55;;;;;;;;;;5110163;28;20418;-75
2022/06/02 09:47:09;;;;;;;4.15;2.30;;;;;;;;;;5109132;27;20047;-76
2022/06/02 09:49:42;;;;;;;6.18;2.42;;;;;;;;;;5106306;28;20408;-77
2022/06/02 09:52:37;;;;;;;5.28;2.10;;;;;;;;;;5110444;28;20036;-79
2022/06/02 09:55:22;;;;;;;6.95;2.20;;;;;;;;;;5111387;28;20392;-86
2022/06/02 09:57:57;;;;;;;5.75;2.40;;;;;;;;;;5094124;28;20044;-86
2022/06/02 10:00:23;;;;;;;4.68;2.30;;;;;;;;;;5093180;28;20047;-89
2022/06/02 10:03:08;;;;;;;6.03;2.55;;;;;;;;;;5108919;28;20517;-83
2022/06/02 10:06:02;;;;;;;5.45;2.50;;;;;;;;;;5125159;27;20428;-81
2022/06/02 10:08:38;;;;;;;3.95;2.20;;;;;;;;;;5092891;28;20123;-80
2022/06/02 10:11:04;;;;;;;4.30;2.25;;;;;;;;;;5100213;28;20040;-82
2022/06/02 10:13:49;;;;;;;6.30;2.47;;;;;;;;;;5116413;27;20394;-91
2022/06/02 10:16:15;;;;;;;5.25;2.42;;;;;;;;;;5088474;28;20043;-93
2022/06/02 10:18:41;;;;;;;4.85;2.45;;;;;;;;;;5092476;28;20042;-88
2022/06/02 10:21:20;;;;;;;6.63;2.42;;;;;;;;;;5093693;28;20067;-90
2022/06/02 10:24:04;;;;;;;6.53;2.60;;;;;;;;;;5123363;27;20564;-88
2022/06/02 10:26:31;;;;;;;5.40;2.28;;;;;;;;;;5096439;28;20043;-89
2022/06/02 10:29:03;;;;;;;4.18;2.17;;;;;;;;;;5090766;28;20046;-88
2022/06/02 10:31:51;;;;;;;6.70;2.80;;;;;;;;;;5093488;28;20035;-86
2022/06/02 10:34:20;;;;;;;5.55;2.30;;;;;;;;;;5090335;28;20044;-83
2022/06/02 10:37:00;;;;;;;6.18;2.42;;;;;;;;;;5107873;28;20031;-82
2022/06/02 10:39:26;;;;;;;4.90;2.55;;;;;;;;;;5089936;28;20035;-84
2022/06/02 10:41:52;;;;;;;6.25;2.47;;;;;;;;;;5108622;28;20031;-84
2022/06/02 10:44:29;;;;;;;5.50;2.90;;;;;;;;;;5108639;28;20081;-85
2022/06/02 10:46:55;;;;;;;5.88;3.17;;;;;;;;;;5090997;28;20040;-89
2022/06/02 10:49:30;;;;;;;5.57;2.35;;;;;;;;;;5109147;28;20391;-94
2022/06/02 10:52:30;;;;;;;3.45;2.00;;;;;;;;;;5092773;28;20075;-86
2022/06/02 10:55:02;;;;;;;4.70;1.90;;;;;;;;;;5056390;28;20096;-85
2022/06/02 10:57:35;;;;;;;6.53;2.63;;;;;;;;;;5092597;28;20069;-86
2022/06/02 11:00:02;;;;;;;5.55;2.40;;;;;;;;;;5090653;28;20394;-85
2022/06/02 11:02:44;;;;;;;6.38;2.30;;;;;;;;;;5102042;28;20119;-85
2022/06/02 11:05:19;;;;;;;4.45;2.40;;;;;;;;;;5084717;28;20495;-86
2022/06/02 11:07:45;;;;;;;4.53;2.40;;;;;;;;;;5091046;28;20099;-84
2022/06/02 11:10:21;;;;;;;7.38;2.70;;;;;;;;;;5094554;28;20503;-84
2022/06/02 11:12:53;;;;;;;6.10;2.55;;;;;;;;;;5106643;28;20088;-88
2022/06/02 11:15:32;;;;;;;4.85;2.50;;;;;;;;;;5107901;28;20088;-88
2022/06/02 11:17:58;;;;;;;4.38;2.55;;;;;;;;;;5106295;28;20113;-83
2022/06/02 11:20:36;;;;;;;4.43;2.47;;;;;;;;;;5111821;28;20395;-81
2022/06/02 11:23:35;;;;;;;6.50;2.33;;;;;;;;;;5120045;28;20039;-81
2022/06/02 11:26:04;;;;;;;4.28;1.98;;;;;;;;;;5070569;28;20047;-80
2022/06/02 11:28:45;;;;;;;4.40;2.55;;;;;;;;;;5123147;28;20046;-83
2022/06/02 11:31:30;;;;;;;6.90;2.20;;;;;;;;;;5118569;28;20046;-80
2022/06/02 11:34:32;;;;;;;6.75;2.95;;;;;;;;;;5111168;28;20313;-80
2022/06/02 11:37:17;;;;;;;5.53;2.65;;;;;;;;;;5018782;28;20049;-78
2022/06/02 11:40:08;;;;;;;6.68;2.88;;;;;;;;;;5114177;27;20101;-80
2022/06/02 11:42:53;;;;;;;5.85;2.67;;;;;;;;;;5105173;28;20028;-79
2022/06/02 11:45:28;;;;;;;4.68;2.33;;;;;;;;;;5098903;28;20043;-79
2022/06/02 11:47:54;;;;;;;3.88;2.15;;;;;;;;;;5098138;27;20044;-79
2022/06/02 11:50:20;;;;;;;6.90;2.55;;;;;;;;;;5096676;28;20127;-80
2022/06/02 11:52:54;;;;;;;5.90;2.28;;;;;;;;;;5087449;28;20071;-80
2022/06/02 11:55:36;;;;;;;5.57;2.53;;;;;;;;;;5104312;28;20077;-80
2022/06/02 11:58:02;;;;;;;5.78;1.92;;;;;;;;;;5099013;28;20081;-80
2022/06/02 12:00:47;;;;;;;3.97;1.90;;;;;;;;;;5101036;28;20495;-79
2022/06/02 12:03:33;;;;;;;9.13;2.22;;;;;;;;;;5088670;28;20040;-80
2022/06/02 12:06:19;;;;;;;5.20;2.20;;;;;;;;;;5090674;28;20047;-80
2022/06/02 12:09:10;;;;;;;5.05;2.40;;;;;;;;;;5100249;28;20101;-78
2022/06/02 12:11:49;;;;;;;6.70;2.70;;;;;;;;;;5106866;28;20039;-83
2022/06/02 12:14:22;;;;;;;6.63;2.58;;;;;;;;;;5089411;28;20036;-79
2022/06/02 12:17:13;;;;;;;5.00;2.58;;;;;;;;;;5104170;28;20058;-82
2022/06/02 12:20:12;;;;;;;5.53;2.22;;;;;;;;;;5093760;28;20036;-79
2022/06/02 12:22:41;;;;;;;6.25;2.20;;;;;;;;;;5053898;28;20065;-81
2022/06/02 12:25:10;;;;;;;4.60;2.22;;;;;;;;;;5112415;28;20040;-78
2022/06/02 12:27:46;;;;;;;3.70;2.20;;;;;;;;;;5110803;28;20475;-81
2022/06/02 12:30:12;;;;;;;6.32;2.80;;;;;;;;;;5087463;28;20301;-79
2022/06/02 12:32:42;;;;;;;3.75;2.38;;;;;;;;;;5094913;28;20070;-82
2022/06/02 12:35:11;;;;;;;5.25;2.40;;;;;;;;;;5093876;28;20066;-81
2022/06/02 12:37:47;;;;;;;5.10;2.30;;;;;;;;;;5095689;28;20507;-81
2022/06/02 12:40:23;;;;;;;5.03;2.60;;;;;;;;;;5089093;28;20429;-75
2022/06/02 12:43:08;;;;;;;4.22;2.58;;;;;;;;;;5108933;28;20446;-74
2022/06/02 12:45:40;;;;;;;5.07;2.40;;;;;;;;;;5115015;27;20039;-74
2022/06/02 12:48:25;;;;;;;7.53;2.88;;;;;;;;;;5123317;27;20510;-76
2022/06/02 12:51:10;;;;;;;4.07;2.20;;;;;;;;;;5099113;27;20042;-75
2022/06/02 12:53:54;;;;;;;4.22;2.30;;;;;;;;;;5110828;28;20429;-74
2022/06/02 12:56:20;;;;;;;3.90;2.28;;;;;;;;;;5111056;28;20693;-74
2022/06/02 12:59:05;;;;;;;4.45;2.35;;;;;;;;;;5127715;27;20040;-75
2022/06/02 13:01:50;;;;;;;5.60;2.22;;;;;;;;;;5114934;27;20727;-75
2022/06/02 13:04:34;;;;;;;5.45;2.47;;;;;;;;;;5111187;28;20078;-75
2022/06/02 13:07:09;;;;;;;4.80;2.50;;;;;;;;;;5111026;27;20115;-74
2022/06/02 13:09:40;;;;;;;4.72;2.22;;;;;;;;;;5108266;28;20039;-80
2022/06/02 13:12:06;;;;;;;3.95;2.22;;;;;;;;;;5101818;28;20058;-88
2022/06/02 13:14:32;;;;;;;4.18;2.30;;;;;;;;;;5092616;28;20064;-89
2022/06/02 13:17:05;;;;;;;7.28;2.70;;;;;;;;;;5084392;28;20139;-88
2022/06/02 13:20:00;;;;;;;5.25;2.75;;;;;;;;;;5086143;28;20031;-79
2022/06/02 13:22:35;;;;;;;4.03;2.33;;;;;;;;;;5075732;27;20043;-83
2022/06/02 13:25:25;;;;;;;3.25;2.00;;;;;;;;;;5130315;27;20083;-79
2022/06/02 13:27:51;;;;;;;3.97;2.28;;;;;;;;;;5083280;28;20258;-80
2022/06/02 13:30:29;;;;;;;5.00;2.53;;;;;;;;;;5113225;27;20039;-82
2022/06/02 13:33:14;;;;;;;5.07;2.45;;;;;;;;;;5120317;27;20043;-78
2022/06/02 13:35:40;;;;;;;;;;;;;;;;;;5120543;27;20027;-76
2022/06/02 13:38:19;;;;;;;4.28;2.30;;;;;;;;;;5120127;27;19922;-76
2022/06/02 13:41:06;;;;;;;5.38;2.67;;;;;;;;;;5118520;27;20046;-81
2022/06/02 13:43:32;;;;;;;6.10;2.35;;;;;;;;;;5096192;27;20048;-82
2022/06/02 13:46:07;;;;;;;4.85;2.60;;;;;;;;;;5125691;27;20449;-81
2022/06/02 13:48:52;;;;;;;3.33;2.13;;;;;;;;;;5100748;27;20039;-73
2022/06/02 13:51:42;;;;;;;4.85;2.28;;;;;;;;;;5096437;28;20071;-78
2022/06/02 13:57:43;;;;;;;3.92;2.38;;;;;;;;;;5099881;27;20032;-79
2022/06/02 14:00:24;;;;;;;4.57;2.20;;;;;;;;;;5108933;28;20049;-79
2022/06/02 14:02:50;;;;;;;6.15;2.30;;;;;;;;;;5108111;28;20422;-76
2022/06/02 14:05:29;;;;;;;3.70;2.40;;;;;;;;;;5124840;27;20035;-87
2022/06/02 14:08:14;;;;;;;5.35;2.40;;;;;;;;;;5096998;27;20138;-76
2022/06/02 14:10:49;;;;;;;4.30;2.40;;;;;;;;;;5128499;27;20126;-76
2022/06/02 14:13:25;;;;;;;4.13;2.33;;;;;;;;;;5109958;27;20032;-79
2022/06/02 14:15:51;;;;;;;5.85;2.20;;;;;;;;;;5097973;27;20092;-77
2022/06/02 14:18:18;;;;;;;3.33;2.10;;;;;;;;;;5117705;27;20118;-76
2022/06/02 14:20:54;;;;;;;4.30;2.25;;;;;;;;;;5122779;27;20078;-74
2022/06/02 14:23:20;;;;;;;8.45;2.20;;;;;;;;;;5111778;27;20051;-75
2022/06/02 14:26:02;;;;;;;6.15;2.47;;;;;;;;;;5120526;27;20040;-74
2022/06/02 14:28:38;;;;;;;6.60;2.30;;;;;;;;;;5095416;28;20122;-75
2022/06/02 14:31:16;;;;;;;5.55;2.30;;;;;;;;;;5106990;28;20040;-74
2022/06/02 14:33:45;;;;;;;3.60;2.22;;;;;;;;;;5110341;27;20317;-75
2022/06/02 14:36:50;;;;;;;4.20;2.20;;;;;;;;;;5107661;28;20078;-75
2022/06/02 14:39:16;;;;;;;4.60;2.50;;;;;;;;;;4978746;28;20033;-82
2022/06/02 14:41:51;;;;;;;6.93;2.30;;;;;;;;;;4984157;28;20196;-76
2022/06/02 14:44:26;;;;;;;4.07;2.00;;;;;;;;;;5048867;28;20104;-74
2022/06/02 14:47:04;;;;;;;4.25;2.17;;;;;;;;;;5111441;28;20133;-74
2022/06/02 14:49:31;;;;;;;3.35;2.17;;;;;;;;;;5119597;28;20043;-76
2022/06/02 14:52:15;;;;;;;5.38;2.67;;;;;;;;;;5119986;28;20047;-75
2022/06/02 14:54:55;;;;;;;6.40;2.58;;;;;;;;;;5111471;28;20048;-73
2022/06/02 14:57:39;;;;;;;4.47;2.20;;;;;;;;;;5087334;28;20526;-73
2022/06/02 15:00:08;;;;;;;5.40;2.13;;;;;;;;;;5108756;28;20039;-73
2022/06/02 15:02:54;;;;;;;4.22;2.20;;;;;;;;;;5110247;28;20517;-74
2022/06/02 15:05:20;;;;;;;;;;;;;;;;;;5118254;28;20051;-74
2022/06/02 15:07:58;;;;;;;5.38;2.50;;;;;;;;;;5120299;28;19919;-73
2022/06/02 15:10:27;;;;;;;4.82;2.53;;;;;;;;;;5110862;28;20051;-73
2022/06/02 15:12:56;;;;;;;4.00;2.40;;;;;;;;;;5110136;28;20035;-73
2022/06/02 15:15:40;;;;;;;4.25;2.42;;;;;;;;;;5116783;27;20035;-74
2022/06/02 15:18:06;;;;;;;4.25;2.30;;;;;;;;;;5096812;27;20118;-73
2022/06/02 15:20:47;;;;;;;5.13;2.40;;;;;;;;;;5100710;27;20424;-74
2022/06/02 15:23:36;;;;;;;6.05;2.45;;;;;;;;;;5105495;27;20086;-73
2022/06/02 15:26:24;;;;;;;5.18;2.47;;;;;;;;;;5114029;27;20065;-73
2022/06/02 15:28:50;;;;;;;4.50;2.03;;;;;;;;;;5105928;28;20047;-73
2022/06/02 15:31:18;;;;;;;4.75;2.33;;;;;;;;;;5106213;27;20043;-73
2022/06/02 15:33:59;;;;;;;3.85;2.20;;;;;;;;;;5114708;27;20466;-73
2022/06/02 15:36:44;;;;;;;3.83;2.35;;;;;;;;;;5125140;27;20092;-73
2022/06/02 15:39:13;;;;;;;5.68;2.63;;;;;;;;;;5106356;27;20116;-73
2022/06/02 15:41:48;;;;;;;5.03;2.58;;;;;;;;;;5114628;27;20035;-73